Time;durP1;ratioP1;P1;durP2;ratioP2;P2;SDS_P1;SDS_P2;PMS_P1;PMS_P2;Temp;Humidity;BMP_temperature;BMP_pressure;BME280_temperature;BME280_humidity;BME280_pressure;Samples;Min_cycle;Max_cycle;Signal;HPM_P1;HPM_P2
2022/10/19 00:01:14;;;;;;;38.53;20.83;;;;;;;;;;5103356;28;20323;-68
2022/10/19 00:03:40;;;;;;;33.92;19.55;;;;;;;;;;5096866;28;20039;-69
2022/10/19 00:06:17;;;;;;;33.30;18.83;;;;;;;;;;5097222;28;20019;-70
2022/10/19 00:08:43;;;;;;;32.50;17.92;;;;;;;;;;5101101;28;20382;-69
2022/10/19 00:11:08;;;;;;;33.80;17.08;;;;;;;;;;5101095;28;20020;-69
2022/10/19 00:13:34;;;;;;;31.58;17.00;;;;;;;;;;5093880;27;20020;-70
2022/10/19 00:15:59;;;;;;;27.40;16.15;;;;;;;;;;5097933;28;20027;-69
2022/10/19 00:18:24;;;;;;;25.53;16.57;;;;;;;;;;5099639;27;20040;-70
2022/10/19 00:20:49;;;;;;;28.80;16.67;;;;;;;;;;5098360;28;20279;-69
2022/10/19 00:23:15;;;;;;;28.05;16.70;;;;;;;;;;5111946;27;20039;-68
2022/10/19 00:25:40;;;;;;;26.20;15.85;;;;;;;;;;5118944;27;20028;-68
2022/10/19 00:28:05;;;;;;;25.43;14.93;;;;;;;;;;5117270;27;20023;-69
2022/10/19 00:30:30;;;;;;;28.37;16.70;;;;;;;;;;5125742;27;20030;-69
2022/10/19 00:32:56;;;;;;;27.97;16.83;;;;;;;;;;5115567;27;20282;-69
2022/10/19 00:35:21;;;;;;;26.60;16.95;;;;;;;;;;5118122;27;20297;-68
2022/10/19 00:37:46;;;;;;;29.58;16.48;;;;;;;;;;5118317;27;20023;-68
2022/10/19 00:40:12;;;;;;;26.67;15.83;;;;;;;;;;5121800;27;20027;-70
2022/10/19 00:42:37;;;;;;;26.25;15.65;;;;;;;;;;5122370;27;20056;-69
2022/10/19 00:45:04;;;;;;;24.20;15.33;;;;;;;;;;5117587;27;20341;-69
2022/10/19 00:47:30;;;;;;;26.58;15.15;;;;;;;;;;5116010;27;20328;-69
2022/10/19 00:49:56;;;;;;;25.77;14.85;;;;;;;;;;5102302;27;20031;-69
2022/10/19 00:52:23;;;;;;;24.08;14.65;;;;;;;;;;5120845;27;20034;-69
2022/10/19 00:54:49;;;;;;;26.55;15.48;;;;;;;;;;5115447;27;20030;-69
2022/10/19 00:57:14;;;;;;;24.58;15.05;;;;;;;;;;5103927;27;20118;-68
2022/10/19 00:59:41;;;;;;;31.38;16.08;;;;;;;;;;5119813;27;20114;-69
2022/10/19 01:02:06;;;;;;;26.67;16.35;;;;;;;;;;5124085;27;20019;-69
2022/10/19 01:04:33;;;;;;;30.10;16.17;;;;;;;;;;5116191;27;20024;-69
2022/10/19 01:06:59;;;;;;;31.17;15.90;;;;;;;;;;5119722;27;20134;-69
2022/10/19 01:09:24;;;;;;;25.20;15.63;;;;;;;;;;5097123;27;20103;-69
2022/10/19 01:11:52;;;;;;;29.40;16.23;;;;;;;;;;5103836;27;20027;-69
2022/10/19 01:14:35;;;;;;;28.42;15.82;;;;;;;;;;5118834;27;20122;-69
2022/10/19 01:17:19;;;;;;;27.65;16.20;;;;;;;;;;5119566;27;20648;-71
2022/10/19 01:20:03;;;;;;;28.23;15.48;;;;;;;;;;5118080;27;20393;-70
2022/10/19 01:22:46;;;;;;;24.73;14.10;;;;;;;;;;5119529;27;20068;-70
2022/10/19 01:25:20;;;;;;;27.13;15.20;;;;;;;;;;5118407;27;20031;-69
2022/10/19 01:28:08;;;;;;;28.55;14.80;;;;;;;;;;5104498;27;20031;-70
2022/10/19 01:30:40;;;;;;;22.80;13.80;;;;;;;;;;5116915;27;20033;-69
2022/10/19 01:33:11;;;;;;;26.38;14.88;;;;;;;;;;5118831;27;20027;-68
2022/10/19 01:35:42;;;;;;;25.45;14.07;;;;;;;;;;5117013;27;20043;-69
2022/10/19 01:38:16;;;;;;;21.92;12.65;;;;;;;;;;5100330;27;20031;-69
2022/10/19 01:41:10;;;;;;;18.42;11.70;;;;;;;;;;5103152;27;20073;-69
2022/10/19 01:43:38;;;;;;;18.10;10.35;;;;;;;;;;5116695;27;20027;-69
2022/10/19 01:46:10;;;;;;;21.30;11.30;;;;;;;;;;5116570;27;20024;-69
2022/10/19 01:48:37;;;;;;;19.05;10.65;;;;;;;;;;5117446;27;20024;-69
2022/10/19 01:51:29;;;;;;;22.65;12.40;;;;;;;;;;5118108;27;20102;-71
2022/10/19 01:53:56;;;;;;;23.63;13.48;;;;;;;;;;5093309;28;20066;-69
2022/10/19 01:56:23;;;;;;;27.83;14.90;;;;;;;;;;5097284;27;20099;-69
2022/10/19 01:58:50;;;;;;;24.67;15.13;;;;;;;;;;5116350;27;20024;-69
2022/10/19 02:01:17;;;;;;;28.05;15.63;;;;;;;;;;5119641;27;20027;-71
2022/10/19 02:03:42;;;;;;;24.40;13.90;;;;;;;;;;5119616;27;20023;-70
2022/10/19 02:06:08;;;;;;;23.50;12.15;;;;;;;;;;5116451;27;20027;-70
2022/10/19 02:08:38;;;;;;;24.05;13.07;;;;;;;;;;5117486;27;20023;-69
2022/10/19 02:11:03;;;;;;;22.75;12.90;;;;;;;;;;5100200;27;20445;-69
2022/10/19 02:13:29;;;;;;;20.60;13.65;;;;;;;;;;5117128;27;20118;-69
2022/10/19 02:15:56;;;;;;;20.20;12.93;;;;;;;;;;5117487;27;20110;-68
2022/10/19 02:18:24;;;;;;;27.23;14.25;;;;;;;;;;5120796;27;20023;-69
2022/10/19 02:20:49;;;;;;;22.15;13.65;;;;;;;;;;5117095;27;20404;-69
2022/10/19 02:23:16;;;;;;;18.48;11.27;;;;;;;;;;5113749;27;20101;-70
2022/10/19 02:25:41;;;;;;;17.52;10.98;;;;;;;;;;5115669;27;20024;-69
2022/10/19 02:28:07;;;;;;;20.27;11.00;;;;;;;;;;5118082;27;20110;-69
2022/10/19 02:30:32;;;;;;;21.90;12.27;;;;;;;;;;5118968;27;20015;-69
2022/10/19 02:32:57;;;;;;;19.48;11.68;;;;;;;;;;5121975;27;20016;-70
2022/10/19 02:35:23;;;;;;;17.50;10.73;;;;;;;;;;5122009;27;20111;-70
2022/10/19 02:37:48;;;;;;;22.67;11.23;;;;;;;;;;5114447;27;20038;-70
2022/10/19 02:40:13;;;;;;;21.85;12.13;;;;;;;;;;5121562;27;20023;-70
2022/10/19 02:43:00;;;;;;;18.65;11.23;;;;;;;;;;5113994;27;20084;-69
2022/10/19 02:45:36;;;;;;;21.13;12.40;;;;;;;;;;5115502;27;20496;-70
2022/10/19 02:48:08;;;;;;;25.75;13.48;;;;;;;;;;5111726;27;20059;-70
2022/10/19 02:50:33;;;;;;;24.15;14.02;;;;;;;;;;5115265;27;20059;-69
2022/10/19 02:52:58;;;;;;;31.33;15.13;;;;;;;;;;5097080;27;20393;-70
2022/10/19 02:55:24;;;;;;;29.23;15.23;;;;;;;;;;5097951;28;20031;-70
2022/10/19 02:57:49;;;;;;;24.23;14.73;;;;;;;;;;5117678;27;20031;-70
2022/10/19 03:00:14;;;;;;;28.77;14.40;;;;;;;;;;5114850;27;20062;-71
2022/10/19 03:02:39;;;;;;;24.90;14.43;;;;;;;;;;5120117;27;20036;-70
2022/10/19 03:05:05;;;;;;;273.67;62.13;;;;;;;;;;5099547;28;20287;-70
2022/10/19 03:07:30;;;;;;;39.90;20.73;;;;;;;;;;5119087;27;20033;-70
2022/10/19 03:09:55;;;;;;;28.97;14.67;;;;;;;;;;5118094;27;20063;-70
2022/10/19 03:12:21;;;;;;;23.67;13.90;;;;;;;;;;5118070;27;20091;-70
2022/10/19 03:14:46;;;;;;;22.90;14.10;;;;;;;;;;5097942;28;20034;-70
2022/10/19 03:17:11;;;;;;;23.77;14.17;;;;;;;;;;5102485;28;20272;-70
2022/10/19 03:19:37;;;;;;;25.95;14.65;;;;;;;;;;5114750;27;20031;-70
2022/10/19 03:22:02;;;;;;;23.57;14.43;;;;;;;;;;5096504;27;20398;-69
2022/10/19 03:24:28;;;;;;;25.13;14.83;;;;;;;;;;5118856;27;20297;-69
2022/10/19 03:26:54;;;;;;;28.33;16.17;;;;;;;;;;5119182;27;20388;-68
2022/10/19 03:29:19;;;;;;;24.63;14.73;;;;;;;;;;5116597;27;20027;-68
2022/10/19 03:31:44;;;;;;;28.30;15.57;;;;;;;;;;5121025;27;20276;-69
2022/10/19 03:34:09;;;;;;;28.43;15.70;;;;;;;;;;5125403;27;20027;-69
2022/10/19 03:36:37;;;;;;;27.73;15.30;;;;;;;;;;5129605;27;20018;-69
2022/10/19 03:39:03;;;;;;;25.75;14.30;;;;;;;;;;5125698;27;20030;-69
2022/10/19 03:41:30;;;;;;;27.77;15.65;;;;;;;;;;5101645;27;20028;-69
2022/10/19 03:43:55;;;;;;;28.45;15.43;;;;;;;;;;5118464;27;20027;-69
2022/10/19 03:46:21;;;;;;;26.75;15.20;;;;;;;;;;5118297;27;20110;-69
2022/10/19 03:48:46;;;;;;;24.70;13.85;;;;;;;;;;5116512;27;20032;-69
2022/10/19 03:51:13;;;;;;;23.60;13.82;;;;;;;;;;5114593;27;20024;-70
2022/10/19 03:53:39;;;;;;;25.58;13.50;;;;;;;;;;5116634;27;20108;-69
2022/10/19 03:56:06;;;;;;;23.10;12.95;;;;;;;;;;5102374;27;20027;-69
2022/10/19 03:58:32;;;;;;;25.58;13.68;;;;;;;;;;5122596;27;20499;-68
2022/10/19 04:00:58;;;;;;;25.27;13.50;;;;;;;;;;5123134;27;20035;-68
2022/10/19 04:03:23;;;;;;;23.77;13.02;;;;;;;;;;5103478;28;20396;-68
2022/10/19 04:05:48;;;;;;;22.25;12.48;;;;;;;;;;5122955;27;20045;-68
2022/10/19 04:08:13;;;;;;;18.33;11.33;;;;;;;;;;5117016;27;20035;-69
2022/10/19 04:10:39;;;;;;;20.60;11.30;;;;;;;;;;5115187;27;20027;-68
2022/10/19 04:13:04;;;;;;;19.60;12.07;;;;;;;;;;5121096;27;20281;-68
2022/10/19 04:15:29;;;;;;;18.50;11.27;;;;;;;;;;5123892;27;20077;-73
2022/10/19 04:17:54;;;;;;;18.03;10.03;;;;;;;;;;5123055;27;20031;-71
2022/10/19 04:20:19;;;;;;;19.92;11.48;;;;;;;;;;5121470;27;20488;-70
2022/10/19 04:22:45;;;;;;;20.30;11.63;;;;;;;;;;5119135;27;20056;-71
2022/10/19 04:25:11;;;;;;;18.20;10.30;;;;;;;;;;5098735;28;20088;-73
2022/10/19 04:27:36;;;;;;;20.63;11.68;;;;;;;;;;5102963;27;20764;-73
2022/10/19 04:30:02;;;;;;;22.55;13.05;;;;;;;;;;5104159;28;20058;-71
2022/10/19 04:32:27;;;;;;;28.77;12.45;;;;;;;;;;5112021;27;20032;-71
2022/10/19 04:34:52;;;;;;;24.37;14.37;;;;;;;;;;5105579;27;20537;-74
2022/10/19 04:37:18;;;;;;;19.53;11.10;;;;;;;;;;5126384;27;20380;-73
2022/10/19 04:39:44;;;;;;;19.45;10.65;;;;;;;;;;5110505;27;20079;-73
2022/10/19 04:42:09;;;;;;;19.73;11.43;;;;;;;;;;5120465;27;20015;-72
2022/10/19 04:44:34;;;;;;;21.10;13.23;;;;;;;;;;5106204;27;20066;-73
2022/10/19 04:46:59;;;;;;;22.40;13.20;;;;;;;;;;5105962;28;20057;-70
2022/10/19 04:49:25;;;;;;;21.87;12.10;;;;;;;;;;5117951;27;20291;-72
2022/10/19 04:51:50;;;;;;;18.93;12.57;;;;;;;;;;5116286;27;20697;-71
2022/10/19 04:54:15;;;;;;;23.40;12.80;;;;;;;;;;5120616;27;20527;-72
2022/10/19 04:56:40;;;;;;;28.70;12.98;;;;;;;;;;5119643;27;20429;-71
2022/10/19 04:59:06;;;;;;;21.70;12.33;;;;;;;;;;5096754;27;20484;-71
2022/10/19 05:01:31;;;;;;;23.48;12.30;;;;;;;;;;5117588;27;20282;-72
2022/10/19 05:03:58;;;;;;;22.75;12.38;;;;;;;;;;5112465;27;20051;-73
2022/10/19 05:06:23;;;;;;;21.08;11.93;;;;;;;;;;5097946;27;20067;-71
2022/10/19 05:08:49;;;;;;;27.35;12.80;;;;;;;;;;5098135;27;20582;-71
2022/10/19 05:11:15;;;;;;;23.52;13.02;;;;;;;;;;5119770;27;20555;-71
2022/10/19 05:13:41;;;;;;;23.52;13.48;;;;;;;;;;5115368;27;20055;-72
2022/10/19 05:16:07;;;;;;;31.20;14.60;;;;;;;;;;5103638;27;20023;-71
2022/10/19 05:18:32;;;;;;;24.27;12.27;;;;;;;;;;5120623;27;20385;-71
2022/10/19 05:21:01;;;;;;;32.25;15.35;;;;;;;;;;5102002;27;20033;-73
2022/10/19 05:23:26;;;;;;;37.90;15.52;;;;;;;;;;5118427;27;20056;-74
2022/10/19 05:25:58;;;;;;;47.38;15.35;;;;;;;;;;5117685;27;20030;-71
2022/10/19 05:28:23;;;;;;;32.85;15.15;;;;;;;;;;5113924;27;20374;-71
2022/10/19 05:30:48;;;;;;;30.33;16.30;;;;;;;;;;5117367;27;20030;-72
2022/10/19 05:33:13;;;;;;;37.80;15.37;;;;;;;;;;5100333;27;20437;-73
2022/10/19 05:35:39;;;;;;;31.37;16.03;;;;;;;;;;5116283;27;20279;-72
2022/10/19 05:38:04;;;;;;;38.93;17.17;;;;;;;;;;5121666;27;20140;-71
2022/10/19 05:40:29;;;;;;;31.60;16.43;;;;;;;;;;5105432;27;20267;-71
2022/10/19 05:42:54;;;;;;;43.10;15.00;;;;;;;;;;5114786;27;20784;-72
2022/10/19 05:45:19;;;;;;;36.13;15.57;;;;;;;;;;5114545;27;20292;-71
2022/10/19 05:47:45;;;;;;;54.00;15.80;;;;;;;;;;5098786;27;20106;-71
2022/10/19 05:50:10;;;;;;;47.63;17.07;;;;;;;;;;5101054;27;20281;-73
2022/10/19 05:52:35;;;;;;;39.53;15.27;;;;;;;;;;5120273;27;20035;-72
2022/10/19 05:55:00;;;;;;;42.77;15.90;;;;;;;;;;5116825;27;20275;-72
2022/10/19 05:57:26;;;;;;;45.43;14.83;;;;;;;;;;5117479;27;20328;-72
2022/10/19 05:59:51;;;;;;;37.72;14.43;;;;;;;;;;5100369;27;20760;-72
2022/10/19 06:02:16;;;;;;;39.83;14.07;;;;;;;;;;5116475;27;20027;-72
2022/10/19 06:04:42;;;;;;;29.97;13.80;;;;;;;;;;5116698;27;20031;-72
2022/10/19 06:07:07;;;;;;;41.73;14.70;;;;;;;;;;5124139;27;20278;-71
2022/10/19 06:09:35;;;;;;;38.13;14.03;;;;;;;;;;5100867;27;20031;-71
2022/10/19 06:12:00;;;;;;;42.22;17.90;;;;;;;;;;5117558;27;20290;-70
2022/10/19 06:14:25;;;;;;;55.20;33.97;;;;;;;;;;5119515;27;20402;-71
2022/10/19 06:16:51;;;;;;;79.30;44.00;;;;;;;;;;5114993;27;20027;-70
2022/10/19 06:19:16;;;;;;;56.00;33.37;;;;;;;;;;5116769;27;20022;-72
2022/10/19 06:21:42;;;;;;;46.50;26.60;;;;;;;;;;5120513;27;20342;-72
2022/10/19 06:24:09;;;;;;;29.05;16.52;;;;;;;;;;5121627;27;20300;-72
2022/10/19 06:26:34;;;;;;;26.95;14.18;;;;;;;;;;5115711;27;20023;-71
2022/10/19 06:29:00;;;;;;;26.13;14.70;;;;;;;;;;5099931;28;20115;-72
2022/10/19 06:31:35;;;;;;;30.90;13.35;;;;;;;;;;5113097;27;20034;-71
2022/10/19 06:34:00;;;;;;;24.45;13.73;;;;;;;;;;5099153;27;20027;-73
2022/10/19 06:36:27;;;;;;;20.33;13.18;;;;;;;;;;5121427;27;20027;-72
2022/10/19 06:38:53;;;;;;;19.60;12.82;;;;;;;;;;5118710;28;20517;-72
2022/10/19 06:41:19;;;;;;;23.58;13.25;;;;;;;;;;5121452;28;20122;-72
2022/10/19 06:43:48;;;;;;;24.23;13.35;;;;;;;;;;5122937;27;20028;-72
2022/10/19 06:46:16;;;;;;;24.25;13.90;;;;;;;;;;5098115;28;20024;-72
2022/10/19 06:48:41;;;;;;;24.63;14.27;;;;;;;;;;5094257;27;20031;-73
2022/10/19 06:51:07;;;;;;;25.43;14.17;;;;;;;6.93;nan;101190.16;5116370;27;20113;-73
2022/10/19 06:53:35;;;;;;;23.77;13.13;;;;;;;;;;5101979;27;20351;-71
2022/10/19 06:56:02;;;;;;;26.65;13.43;;;;;;;;;;5116898;27;20142;-72
2022/10/19 06:58:27;;;;;;;24.33;13.90;;;;;;;;;;5104169;27;20122;-72
2022/10/19 07:00:54;;;;;;;23.77;14.30;;;;;;;;;;5126585;27;20445;-73
2022/10/19 07:03:19;;;;;;;25.05;13.73;;;;;;;;;;5125562;27;20697;-72
2022/10/19 07:05:51;;;;;;;24.33;15.30;;;;;;;;;;5126026;27;20059;-73
2022/10/19 07:08:16;;;;;;;29.48;15.27;;;;;;;;;;5104654;28;20291;-74
2022/10/19 07:10:41;;;;;;;27.10;14.67;;;;;;;;;;5099803;27;20511;-72
2022/10/19 07:13:07;;;;;;;27.40;13.50;;;;;;;;;;5105478;27;20320;-73
2022/10/19 07:15:32;;;;;;;21.87;12.63;;;;;;;;;;5101807;27;20027;-74
2022/10/19 07:17:57;;;;;;;24.40;14.47;;;;;;;;;;5106522;28;20063;-72
2022/10/19 07:20:22;;;;;;;23.17;13.40;;;;;;;;;;5102124;27;20035;-73
2022/10/19 07:22:48;;;;;;;22.23;14.27;;;;;;;;;;5120831;27;20052;-72
2022/10/19 07:25:13;;;;;;;22.93;14.10;;;;;;;;;;5106222;27;20035;-73
2022/10/19 07:27:39;;;;;;;27.05;13.48;;;;;;;;;;5106397;27;20294;-74
2022/10/19 07:30:05;;;;;;;22.13;12.98;;;;;;;;;;5130446;27;20027;-73
2022/10/19 07:32:30;;;;;;;22.80;12.68;;;;;;;;;;5099732;27;20119;-72
2022/10/19 07:34:56;;;;;;;23.60;13.18;;;;;;;;;;5100784;28;20034;-72
2022/10/19 07:37:21;;;;;;;24.42;13.20;;;;;;;;;;5103568;27;20500;-72
2022/10/19 07:39:47;;;;;;;26.80;12.93;;;;;;;;;;5121223;27;20108;-71
2022/10/19 07:42:12;;;;;;;19.88;12.98;;;;;;;;;;5102030;27;20118;-72
2022/10/19 07:44:37;;;;;;;27.80;13.53;;;;;;;;;;5106983;27;20030;-72
2022/10/19 07:47:10;;;;;;;21.77;12.77;;;;;;;;;;5116604;27;20671;-74
2022/10/19 07:49:35;;;;;;;24.30;12.23;;;;;;;;;;5117700;27;20279;-75
2022/10/19 07:52:00;;;;;;;21.77;13.10;;;;;;;;;;5118503;27;20038;-75
2022/10/19 07:54:26;;;;;;;22.97;14.13;;;;;;;;;;5117586;27;20106;-75
2022/10/19 07:56:54;;;;;;;25.35;14.65;;;;;;;;;;5104313;27;20035;-72
2022/10/19 07:59:19;;;;;;;32.72;14.43;;;;;;;;;;5121096;27;20027;-75
2022/10/19 08:01:46;;;;;;;31.73;14.40;;;;;;;;;;5120569;27;20043;-73
2022/10/19 08:04:11;;;;;;;28.45;14.65;;;;;;;;;;5103587;27;20642;-73
2022/10/19 08:06:37;;;;;;;31.57;15.97;;;;;;;;;;5104553;27;20046;-74
2022/10/19 08:09:10;;;;;;;28.52;15.07;;;;;;;;;;5115873;27;20279;-72
2022/10/19 08:11:36;;;;;;;27.80;15.07;;;;;;;;;;5099777;28;20041;-73
2022/10/19 08:14:11;;;;;;;26.67;16.23;;;;;;;;;;5121689;27;20470;-73
2022/10/19 08:16:43;;;;;;;26.48;15.07;;;;;;;;;;5093485;27;20104;-73
2022/10/19 08:19:10;;;;;;;30.27;15.05;;;;;;;;;;5099701;27;20376;-74
2022/10/19 08:21:36;;;;;;;23.90;14.10;;;;;;;;;;5100826;27;20035;-74
2022/10/19 08:24:05;;;;;;;28.63;16.27;;;;;;;;;;5101450;27;20070;-74
2022/10/19 08:26:31;;;;;;;29.17;15.65;;;;;;;;;;5098909;27;20028;-74
2022/10/19 08:29:08;;;;;;;30.05;16.70;;;;;;;;;;5122495;27;20476;-75
2022/10/19 08:31:34;;;;;;;28.48;17.00;;;;;;;;;;5118294;27;20336;-74
2022/10/19 08:33:59;;;;;;;33.15;19.05;;;;;;;;;;5121861;27;20015;-74
2022/10/19 08:36:26;;;;;;;30.60;17.77;;;;;;;;;;5106321;27;20031;-74
2022/10/19 08:38:52;;;;;;;32.70;18.48;;;;;;;;;;5117921;27;20076;-74
2022/10/19 08:41:21;;;;;;;38.60;19.52;;;;;;;;;;5119448;27;20024;-74
2022/10/19 08:43:52;;;;;;;33.85;19.05;;;;;;;;;;5116103;27;20043;-73
2022/10/19 08:46:23;;;;;;;36.15;19.63;;;;;;;;;;5117480;27;20035;-74
2022/10/19 08:48:49;;;;;;;31.17;18.20;;;;;;;;;;5121443;27;20381;-74
2022/10/19 08:51:14;;;;;;;31.70;19.33;;;;;;;;;;5099029;27;20031;-73
2022/10/19 08:53:44;;;;;;;27.45;17.25;;;;;;;;;;5101856;27;20345;-74
2022/10/19 08:56:17;;;;;;;31.55;17.98;;;;;;;;;;5121107;27;20469;-74
2022/10/19 08:59:01;;;;;;;31.63;17.60;;;;;;;;;;5098710;27;20023;-74
2022/10/19 09:01:41;;;;;;;29.98;16.33;;;;;;;;;;5113374;27;20023;-73
2022/10/19 09:04:11;;;;;;;28.20;16.20;;;;;;;;;;5096683;28;20079;-74
2022/10/19 09:06:48;;;;;;;24.10;15.93;;;;;;;;;;5102342;28;20427;-73
2022/10/19 09:09:15;;;;;;;26.90;15.43;;;;;;;;;;5116103;27;20015;-74
2022/10/19 09:11:46;;;;;;;23.58;15.20;;;;;;;;;;5094702;28;20019;-74
2022/10/19 09:14:20;;;;;;;26.00;15.18;;;;;;;;;;5098796;27;20566;-75
2022/10/19 09:16:46;;;;;;;27.92;15.20;;;;;;;;;;5116632;27;20473;-74
2022/10/19 09:19:20;;;;;;;27.73;15.32;;;;;;;;;;5102958;27;20023;-74
2022/10/19 09:21:48;;;;;;;30.92;15.73;;;;;;;;;;5115984;27;20023;-73
2022/10/19 09:24:25;;;;;;;22.88;14.32;;;;;;;;;;5121548;27;20047;-74
2022/10/19 09:26:52;;;;;;;27.63;15.45;;;;;;;;;;5100849;27;20034;-74
2022/10/19 09:29:25;;;;;;;26.65;15.18;;;;;;;;;;5098873;28;20016;-75
2022/10/19 09:31:53;;;;;;;25.85;14.93;;;;;;;;;;5119266;27;20589;-76
2022/10/19 09:34:35;;;;;;;27.40;14.85;;;;;;;;;;5099729;28;20102;-76
2022/10/19 09:37:00;;;;;;;26.08;15.45;;;;;;;;;;5119355;27;20032;-76
2022/10/19 09:39:27;;;;;;;29.67;14.65;;;;;;;;;;5102269;27;20027;-75
2022/10/19 09:41:56;;;;;;;27.75;14.40;;;;;;;;;;5116437;27;20026;-73
2022/10/19 09:44:21;;;;;;;;;;;;;;;;;;5113076;27;20380;-74
2022/10/19 09:46:56;;;;;;;24.20;15.38;;;;;;;;;;5100351;27;20330;-76
2022/10/19 09:49:50;;;;;;;25.85;15.35;;;;;;;;;;5113951;27;20116;-76
2022/10/19 09:52:35;;;;;;;26.45;16.02;;;;;;;;;;5101261;27;20104;-75
2022/10/19 09:55:13;;;;;;;30.05;16.45;;;;;;;;;;5113771;27;20012;-74
2022/10/19 09:57:41;;;;;;;22.15;15.35;;;;;;;;;;5119174;27;20034;-74
2022/10/19 10:00:06;;;;;;;28.42;15.70;;;;;;;;;;5098109;27;20019;-74
2022/10/19 10:02:32;;;;;;;30.10;16.00;;;;;;;;;;5116403;27;20027;-74
2022/10/19 10:05:00;;;;;;;26.02;14.20;;;;;;;;;;5114208;27;20027;-74
2022/10/19 10:07:31;;;;;;;23.88;14.20;;;;;;;;;;5097905;27;20087;-73
2022/10/19 10:09:56;;;;;;;26.00;14.75;;;;;;;;;;5116216;27;20023;-74
2022/10/19 10:12:22;;;;;;;26.97;15.50;;;;;;;14.98;nan;101070.25;5095949;27;20023;-73
2022/10/19 10:14:48;;;;;;;27.95;15.75;;;;;;;;;;5119470;27;20142;-74
2022/10/19 10:17:22;;;;;;;28.98;16.40;;;;;;;;;;5120803;27;20106;-74
2022/10/19 10:20:00;;;;;;;25.15;15.73;;;;;;;;;;5101559;28;20027;-74
2022/10/19 10:22:33;;;;;;;27.55;15.10;;;;;;;;;;5116555;27;20057;-74
2022/10/19 10:24:58;;;;;;;25.30;15.60;;;;;;;;;;5097562;28;20072;-73
2022/10/19 10:27:34;;;;;;;28.35;15.13;;;;;;;;;;5113699;27;20109;-75
2022/10/19 10:30:04;;;;;;;26.17;15.25;;;;;;;;;;5100157;28;20015;-74
2022/10/19 10:32:30;;;;;;;28.65;16.02;;;;;;;;;;5112407;27;20177;-73
2022/10/19 10:34:58;;;;;;;24.37;16.27;;;;;;;;;;5116686;27;20114;-71
2022/10/19 10:37:28;;;;;;;25.27;14.90;;;;;;;;;;5116371;28;20087;-71
2022/10/19 10:39:54;;;;;;;22.27;13.55;;;;;;;;;;5120560;28;20024;-71
2022/10/19 10:42:23;;;;;;;24.85;14.70;;;;;;;;;;5102247;28;20058;-71
2022/10/19 10:44:50;;;;;;;18.63;13.43;;;;;;;;;;5101021;28;20023;-70
2022/10/19 10:47:16;;;;;;;27.98;12.43;;;;;;;;;;5113405;28;20027;-70
2022/10/19 10:49:42;;;;;;;24.05;14.63;;;;;;;;;;5114860;27;20022;-70
2022/10/19 10:52:15;;;;;;;26.75;14.38;;;;;;;;;;5114470;28;20035;-70
2022/10/19 10:54:55;;;;;;;31.75;14.10;;;;;;;;;;5113668;28;20030;-70
2022/10/19 10:57:22;;;;;;;28.33;16.30;;;;;;;;;;5111401;28;20111;-71
2022/10/19 10:59:59;;;;;;;29.25;15.93;;;;;;;;;;5112970;28;20031;-71
2022/10/19 11:02:35;;;;;;;26.67;15.23;;;;;;;;;;5112916;28;20148;-70
2022/10/19 11:05:06;;;;;;;25.10;14.77;;;;;;;;;;5112853;28;20028;-71
2022/10/19 11:07:33;;;;;;;27.27;15.13;;;;;;;;;;5110356;28;20220;-72
2022/10/19 11:10:01;;;;;;;30.95;14.82;;;;;;;;;;5111546;28;20077;-72
2022/10/19 11:12:35;;;;;;;25.33;15.07;;;;;;;;;;5113495;28;20112;-72
2022/10/19 11:15:10;;;;;;;23.75;13.82;;;;;;;;;;5098853;27;20027;-73
2022/10/19 11:17:42;;;;;;;27.38;14.32;;;;;;;16.94;nan;101040.09;5117992;27;20023;-73
2022/10/19 11:20:12;;;;;;;28.08;13.98;;;;;;;;;;5123677;28;20503;-73
2022/10/19 11:22:49;;;;;;;25.73;14.93;;;;;;;;;;5117438;27;20509;-73
2022/10/19 11:25:25;;;;;;;26.67;15.27;;;;;;;;;;5116464;28;20038;-73
2022/10/19 11:27:50;;;;;;;34.60;16.23;;;;;;;;;;5110934;28;20110;-73
2022/10/19 11:30:20;;;;;;;27.50;16.23;;;;;;;;;;5133015;27;20176;-71
2022/10/19 11:32:51;;;;;;;30.40;16.80;;;;;;;;;;5126890;28;20396;-72
2022/10/19 11:35:19;;;;;;;34.28;19.83;;;;;;;;;;5125317;27;20114;-72
2022/10/19 11:37:59;;;;;;;31.33;15.95;;;;;;;;;;5129779;27;20287;-72
2022/10/19 11:40:36;;;;;;;33.13;18.00;;;;;;;;;;5109541;28;20023;-72
2022/10/19 11:43:03;;;;;;;29.60;16.90;;;;;;;;;;5109184;27;20027;-72
2022/10/19 11:45:47;;;;;;;26.67;15.18;;;;;;;;;;5128931;27;20027;-72
2022/10/19 11:48:15;;;;;;;33.65;16.45;;;;;;;;;;5124270;27;20019;-72
2022/10/19 11:50:43;;;;;;;29.83;16.95;;;;;;;;;;5130450;27;20034;-73
2022/10/19 11:53:17;;;;;;;24.90;14.57;;;;;;;17.06;nan;100976.06;5121616;27;20019;-73
2022/10/19 11:55:54;;;;;;;30.27;16.67;;;;;;;;;;5114786;27;20034;-73
2022/10/19 11:58:29;;;;;;;29.80;15.63;;;;;;;;;;5126538;27;20500;-72
2022/10/19 12:01:00;;;;;;;30.77;16.27;;;;;;;;;;5114586;27;20122;-71
2022/10/19 12:03:51;;;;;;;28.20;15.23;;;;;;;;;;5127058;27;20520;-72
2022/10/19 12:06:29;;;;;;;30.92;16.38;;;;;;;;;;5091247;27;20043;-72
2022/10/19 12:09:06;;;;;;;28.73;17.17;;;;;;;;;;5127270;27;20026;-73
2022/10/19 12:12:03;;;;;;;34.17;17.10;;;;;;;17.24;nan;100989.00;5109286;27;20027;-72
2022/10/19 12:14:30;;;;;;;28.75;16.38;;;;;;;;;;5123953;27;20017;-73
2022/10/19 12:16:58;;;;;;;29.75;16.52;;;;;;;;;;5116000;27;20031;-72
2022/10/19 12:19:32;;;;;;;24.30;14.95;;;;;;;17.22;nan;100980.47;5130306;27;20019;-73
2022/10/19 12:21:59;;;;;;;30.20;15.70;;;;;;;;;;5132815;27;20042;-73
2022/10/19 12:24:25;;;;;;;35.80;16.58;;;;;;;;;;5130547;27;20023;-73
2022/10/19 12:26:52;;;;;;;26.88;15.68;;;;;;;;;;5129609;27;20065;-73
2022/10/19 12:29:23;;;;;;;29.20;16.52;;;;;;;;;;5110843;27;20071;-73
2022/10/19 12:31:48;;;;;;;29.70;16.27;;;;;;;;;;5123388;27;20036;-73
2022/10/19 12:34:26;;;;;;;31.98;15.95;;;;;;;;;;5120180;27;20025;-73
2022/10/19 12:37:04;;;;;;;29.38;16.65;;;;;;;;;;5107877;27;20106;-73
2022/10/19 12:39:38;;;;;;;28.83;16.67;;;;;;;;;;5110829;27;20447;-73
2022/10/19 12:42:03;;;;;;;34.40;16.88;;;;;;;;;;5103624;27;20122;-73
2022/10/19 12:44:47;;;;;;;28.17;16.10;;;;;;;;;;5109397;27;20027;-73
2022/10/19 12:47:22;;;;;;;25.92;16.08;;;;;;;;;;5122396;27;20027;-72
2022/10/19 12:49:48;;;;;;;27.23;15.35;;;;;;;;;;5126279;27;20029;-70
2022/10/19 12:52:15;;;;;;;29.27;15.13;;;;;;;;;;5121062;27;20068;-72
2022/10/19 12:54:41;;;;;;;37.33;15.30;;;;;;;;;;5101977;27;20026;-73
2022/10/19 12:57:22;;;;;;;26.85;15.15;;;;;;;;;;5103688;28;20538;-72
2022/10/19 12:59:56;;;;;;;23.50;14.50;;;;;;;;;;5120009;27;20019;-73
2022/10/19 13:02:25;;;;;;;23.92;14.57;;;;;;;;;;5117749;27;20042;-73
2022/10/19 13:04:51;;;;;;;27.97;16.30;;;;;;;;;;5116903;27;20024;-72
2022/10/19 13:07:17;;;;;;;28.83;15.05;;;;;;;;;;5114961;27;20032;-70
2022/10/19 13:09:44;;;;;;;26.00;14.32;;;;;;;;;;5117024;27;20108;-71
2022/10/19 13:12:13;;;;;;;24.35;14.68;;;;;;;;;;5109329;27;20038;-72
2022/10/19 13:14:44;;;;;;;23.20;12.57;;;;;;;;;;5104231;27;20019;-72
2022/10/19 13:17:10;;;;;;;29.38;15.32;;;;;;;;;;5125093;27;20047;-72
2022/10/19 13:19:35;;;;;;;24.48;15.35;;;;;;;;;;5098802;27;20104;-71
2022/10/19 13:22:00;;;;;;;26.02;15.27;;;;;;;;;;5098269;27;20043;-71
2022/10/19 13:24:26;;;;;;;25.70;14.43;;;;;;;;;;5118121;27;20031;-73
2022/10/19 13:27:14;;;;;;;25.90;15.20;;;;;;;;;;5104878;27;20690;-72
2022/10/19 13:29:43;;;;;;;33.83;16.10;;;;;;;;;;5108594;27;20093;-72
2022/10/19 13:32:27;;;;;;;27.08;14.52;;;;;;;;;;5106695;27;20023;-71
2022/10/19 13:34:52;;;;;;;27.25;14.45;;;;;;;;;;5121444;27;20377;-72
2022/10/19 13:37:18;;;;;;;22.97;13.90;;;;;;;;;;5120737;27;20012;-71
2022/10/19 13:39:43;;;;;;;30.20;15.38;;;;;;;;;;5094227;27;20267;-72
2022/10/19 13:42:25;;;;;;;24.52;14.52;;;;;;;;;;5120382;27;20031;-71
2022/10/19 13:44:52;;;;;;;28.30;15.40;;;;;;;;;;5119543;27;20026;-72
2022/10/19 13:47:36;;;;;;;26.50;13.73;;;;;;;;;;5117212;27;20098;-72
2022/10/19 13:50:30;;;;;;;29.95;14.07;;;;;;;;;;5117596;27;20464;-72
2022/10/19 13:52:59;;;;;;;26.17;13.93;;;;;;;;;;5082142;27;20035;-73
2022/10/19 13:55:27;;;;;;;20.38;12.52;;;;;;;;;;5116740;27;20111;-72
2022/10/19 13:57:52;;;;;;;23.55;13.55;;;;;;;;;;5110468;27;20031;-71
2022/10/19 14:00:18;;;;;;;24.58;12.75;;;;;;;;;;5101319;27;20388;-73
2022/10/19 14:02:46;;;;;;;27.60;12.75;;;;;;;;;;5103620;27;20405;-72
2022/10/19 14:05:23;;;;;;;23.27;12.40;;;;;;;;;;5118993;27;20072;-71
2022/10/19 14:08:15;;;;;;;25.17;11.63;;;;;;;;;;5108152;27;20532;-74
2022/10/19 14:10:41;;;;;;;43.83;26.38;;;;;;;;;;5085740;27;20341;-73
2022/10/19 14:13:11;;;;;;;26.08;13.32;;;;;;;;;;5116353;27;20056;-73
2022/10/19 14:15:37;;;;;;;24.83;12.85;;;;;;;;;;5119168;27;20031;-72
2022/10/19 14:18:02;;;;;;;20.00;12.23;;;;;;;;;;5113411;28;20030;-70
2022/10/19 14:20:34;;;;;;;22.92;11.48;;;;;;;18.30;nan;100847.78;5105414;28;20035;-72
2022/10/19 14:23:21;;;;;;;29.52;13.02;;;;;;;18.41;nan;100854.69;5112538;27;20052;-71